Flood From: 19-02-2018 10:30 Until: 20-02-2018 06:00 warning for: Flood Level: Yellow info button

Although rather usual in this region, locally or potentially dangerous phenomena are expected. (such as local winds, summer thunderstorms, rising streams or high waves) Be aware and pay attention to the latest weather updates, especially if you carry out activities exposed to weather or close to a stream or shoreline. 


Meteo18 Weather Cam more information Meteo18 Weather Cam


Thunder radar more information blitzortung!


Rain radar more information rain snow radar


Visit our other weather sites:

Template documentation
and downloads

And another site



Weather Underground History page Text

Daily Summary for September 8, 2016 Units:  Metric    English   Both
« Previous Day
Next Day »
Daily Weekly Monthly Yearly Custom
  High: Low: Average:
Temperature: -17.8 °C -11.1 °C -6.8 °C
Dew Point: -17.8 °C -11.9 °C -10.2 °C
Humidity: Humidity % 47 % 69 %
Wind Speed: 0 km/h 0 km/h 9.5 km/h
Wind Gust: 0 km/h - -
Wind:- - West
Pressure: 0 hPa 34246 hPa -
Precipitation: 0 mm    
Historical Graphs
 
 
Tabular Data for September 8, 2016
Time Temperature Dew Point Pressure Wind Wind Speed Wind Gust Humidity Rainfall Rate (Hourly)
-17.8 °C -17.8 °C 0 hPa Calm     Humidity % 0 mm
00:02 -8.4 °C -10.8 °C 34256.2 hPa Calm     76 % 0 mm
00:12 -8.7 °C -10.9 °C 34256.2 hPa Calm   2.6 km/h 77 % 0 mm
00:17 -8.7 °C -10.8 °C 34256.2 hPa Calm   2.6 km/h 78 % 0 mm
00:22 -8.8 °C -10.9 °C 34256.2 hPa Calm   2.6 km/h 78 % 0 mm
00:32 -8.8 °C -10.8 °C 34256.2 hPa Calm     79 % 0 mm
00:42 -9 °C -10.9 °C 34256.2 hPa Calm     80 % 0 mm
00:47 -9.1 °C -10.9 °C 34256.2 hPa Calm     80 % 0 mm
00:52 -9.1 °C -10.9 °C 34256.2 hPa Calm     81 % 0 mm
00:57 -9.1 °C -10.8 °C 34256.2 hPa Calm     82 % 0 mm
01:02 -9 °C -10.7 °C 34256.2 hPa Calm   2.6 km/h 82 % 0 mm
01:07 -9.1 °C -11 °C 34256.2 hPa Calm   2.6 km/h 80 % 0 mm
01:12 -9.2 °C -11 °C 34256.2 hPa WNW 2.6 km/h 2.6 km/h 81 % 0 mm
01:17 -9.3 °C -11.1 °C 34256.2 hPa Calm   2.6 km/h 81 % 0 mm
01:22 -9.3 °C -10.9 °C 34256.2 hPa Calm   2.6 km/h 83 % 0 mm
01:27 -9.3 °C -10.9 °C 34256.2 hPa Calm   2.6 km/h 83 % 0 mm
01:32 -9.3 °C -11.1 °C 34256.2 hPa Calm     82 % 0 mm
01:37 -9.4 °C -11.1 °C 34256.2 hPa Calm     82 % 0 mm
01:42 -9.4 °C -11 °C 34256.2 hPa Calm     83 % 0 mm
01:47 -9.4 °C -11.1 °C 34256.2 hPa Calm     82 % 0 mm
01:52 -9.5 °C -11.1 °C 34256.2 hPa Calm     83 % 0 mm
01:57 -9.6 °C -11.2 °C 34256.2 hPa Calm     83 % 0 mm
02:02 -9.6 °C -11.2 °C 34256.2 hPa WNW 2.6 km/h 2.6 km/h 83 % 0 mm
02:07 -9.7 °C -11.2 °C 34256.2 hPa Calm   2.6 km/h 84 % 0 mm
02:12 -9.6 °C -11 °C 34256.2 hPa Calm   2.6 km/h 85 % 0 mm
02:17 -9.6 °C -11.1 °C 34256.2 hPa Calm   2.6 km/h 84 % 0 mm
02:22 -9.6 °C -11.1 °C 34256.2 hPa Calm   2.6 km/h 84 % 0 mm
02:32 -9.8 °C -11.4 °C 34256.2 hPa Calm     83 % 0 mm
02:37 -9.8 °C -11.1 °C 34256.2 hPa Calm     86 % 0 mm
02:42 -9.8 °C -11.2 °C 34256.2 hPa Calm     85 % 0 mm
02:47 -9.8 °C -11.1 °C 34256.2 hPa Calm     86 % 0 mm
02:52 -9.9 °C -11.2 °C 34256.2 hPa Calm     86 % 0 mm
02:57 -9.9 °C -11.2 °C 34256.2 hPa Calm   2.6 km/h 86 % 0 mm
03:07 -9.8 °C -11.1 °C 34246 hPa Calm   2.6 km/h 86 % 0 mm
03:12 -9.8 °C -11.1 °C 34256.2 hPa NNE 2.6 km/h 2.6 km/h 86 % 0 mm
03:17 -9.8 °C -11.1 °C 34256.2 hPa Calm   5.1 km/h 86 % 0 mm
03:22 -9.8 °C -11.1 °C 34256.2 hPa Calm   5.1 km/h 86 % 0 mm
03:27 -9.8 °C -10.9 °C 34246 hPa Calm   5.1 km/h 87 % 0 mm
03:32 -9.8 °C -11.1 °C 34246 hPa Calm     86 % 0 mm
03:37 -9.9 °C -11.1 °C 34256.2 hPa Calm     87 % 0 mm
03:42 -9.9 °C -11.1 °C 34256.2 hPa Calm     87 % 0 mm
03:47 -10.1 °C -11.3 °C 34256.2 hPa Calm   2.6 km/h 87 % 0 mm
03:52 -10.3 °C -11.6 °C 34256.2 hPa Calm   2.6 km/h 86 % 0 mm
03:57 -10.4 °C -11.7 °C 34256.2 hPa Calm     86 % 0 mm
04:02 -10.5 °C -11.6 °C 34256.2 hPa Calm   2.6 km/h 88 % 0 mm
04:07 -10.5 °C -11.6 °C 34256.2 hPa Calm   2.6 km/h 88 % 0 mm
04:12 -10.5 °C -11.6 °C 34256.2 hPa WNW 2.6 km/h 2.6 km/h 88 % 0 mm
04:22 -10.4 °C -11.4 °C 34256.2 hPa WNW 2.6 km/h 2.6 km/h 89 % 0 mm
04:27 -10.2 °C -11.3 °C 34256.2 hPa Calm   2.6 km/h 88 % 0 mm
04:32 -10.2 °C -11.3 °C 34256.2 hPa Calm   2.6 km/h 88 % 0 mm
04:37 -10.2 °C -11.2 °C 34256.2 hPa Calm   2.6 km/h 89 % 0 mm
04:42 -10.2 °C -11.2 °C 34256.2 hPa Calm   2.6 km/h 89 % 0 mm
04:47 -10.2 °C -11.3 °C 34256.2 hPa Calm   2.6 km/h 87 % 0 mm
04:52 -10.2 °C -11.3 °C 34256.2 hPa Calm   2.6 km/h 88 % 0 mm
04:57 -10.2 °C -11.2 °C 34256.2 hPa Calm   2.6 km/h 89 % 0 mm
05:02 -10.2 °C -11.1 °C 34256.2 hPa South 2.6 km/h   90 % 0 mm
05:12 -10.1 °C -10.9 °C 34256.2 hPa Calm   2.6 km/h 90 % 0 mm
05:17 -10.1 °C -11.1 °C 34256.2 hPa Calm   2.6 km/h 89 % 0 mm
05:22 -10.2 °C -11.2 °C 34256.2 hPa Calm     89 % 0 mm
05:27 -10.3 °C -11.3 °C 34256.2 hPa Calm     89 % 0 mm
05:32 -10.4 °C -11.4 °C 34256.2 hPa Calm     89 % 0 mm
05:37 -10.6 °C -11.6 °C 34256.2 hPa Calm     89 % 0 mm
05:42 -10.6 °C -11.5 °C 34256.2 hPa Calm     90 % 0 mm
05:47 -10.7 °C -11.6 °C 34256.2 hPa Calm   2.6 km/h 90 % 0 mm
05:52 -10.7 °C -11.6 °C 34256.2 hPa Calm   2.6 km/h 90 % 0 mm
05:57 -10.8 °C -11.7 °C 34256.2 hPa Calm     90 % 0 mm
06:02 -10.9 °C -11.8 °C 34256.2 hPa Calm     90 % 0 mm
06:12 -10.8 °C -11.6 °C 34256.2 hPa Calm     92 % 0 mm
06:17 -10.7 °C -11.4 °C 34256.2 hPa Calm     92 % 0 mm
06:22 -10.7 °C -11.4 °C 34256.2 hPa Calm   2.6 km/h 92 % 0 mm
06:27 -10.7 °C -11.5 °C 34256.2 hPa Calm   2.6 km/h 91 % 0 mm
06:32 -10.8 °C -11.6 °C 34256.2 hPa Calm   2.6 km/h 91 % 0 mm
06:37 -10.9 °C -11.8 °C 34269.7 hPa Calm   5.1 km/h 90 % 0 mm
06:42 -11.1 °C -11.9 °C 34269.7 hPa Calm   5.1 km/h 90 % 0 mm
06:52 -11 °C -11.7 °C 34269.7 hPa Calm   5.1 km/h 92 % 0 mm
06:57 -11 °C -11.7 °C 34279.9 hPa Calm   5.1 km/h 92 % 0 mm
07:02 -11 °C -11.7 °C 34269.7 hPa Calm     92 % 0 mm
07:12 -10.9 °C -11.7 °C 34279.9 hPa Calm     92 % 0 mm
07:17 -11.1 °C -11.9 °C 34279.9 hPa Calm     90 % 0 mm
07:22 -10.9 °C -11.7 °C 34279.9 hPa WSW 5.1 km/h   92 % 0 mm
07:27 -10.8 °C -11.6 °C 34279.9 hPa WSW 2.6 km/h 5.1 km/h 91 % 0 mm
07:32 -10.7 °C -11.6 °C 34293.4 hPa Calm   5.1 km/h 90 % 0 mm
07:37 -10.5 °C -11.5 °C 34279.9 hPa Calm   5.1 km/h 89 % 0 mm
07:42 -10.3 °C -11.4 °C 34293.4 hPa Calm   7.7 km/h 88 % 0 mm
07:47 -10.2 °C -11.3 °C 34293.4 hPa SW 2.6 km/h 7.7 km/h 87 % 0 mm
07:52 -10 °C -11.3 °C 34293.4 hPa Calm   7.7 km/h 86 % 0 mm
07:57 -9.8 °C -11.2 °C 34293.4 hPa SSW 7.7 km/h 7.7 km/h 85 % 0 mm
08:02 -9.7 °C -11.2 °C 34293.4 hPa SSE 2.6 km/h 12.9 km/h 84 % 0 mm
08:22 -9.4 °C -11.1 °C 34303.6 hPa Calm   10.3 km/h 82 % 0 mm
08:27 -9.3 °C -11.1 °C 34303.6 hPa SW 5.1 km/h 10.3 km/h 82 % 0 mm
08:32 -9.3 °C -11.1 °C 34303.6 hPa SW 2.6 km/h 10.3 km/h 81 % 0 mm
08:37 -9.2 °C -11 °C 34303.6 hPa SSW 5.1 km/h 10.3 km/h 81 % 0 mm
08:42 -9.1 °C -10.9 °C 34303.6 hPa SW 7.7 km/h 10.3 km/h 81 % 0 mm
08:47 -9 °C -10.9 °C 34303.6 hPa South 10.3 km/h 15.6 km/h 80 % 0 mm
08:57 -8.7 °C -10.8 °C 34303.6 hPa SW 7.7 km/h 15.6 km/h 78 % 0 mm
09:02 -8.4 °C -10.8 °C 34303.6 hPa South 10.3 km/h 12.9 km/h 76 % 0 mm
09:12 -8.1 °C -10.7 °C 34303.6 hPa SW 10.3 km/h 18.2 km/h 74 % 0 mm
09:17 -7.9 °C -10.7 °C 34303.6 hPa SW 10.3 km/h 18.2 km/h 73 % 0 mm
09:22 -7.7 °C -10.6 °C 34313.7 hPa SSW 7.7 km/h 18.2 km/h 72 % 0 mm
09:27 -7.6 °C -10.6 °C 34313.7 hPa SSW 7.7 km/h 15.6 km/h 71 % 0 mm
09:47 -6.2 °C -10.4 °C 34313.7 hPa WSW 10.3 km/h 31.1 km/h 62 % 0 mm
09:52 -6.1 °C -10.3 °C 34313.7 hPa WSW 31.1 km/h 36.2 km/h 62 % 0 mm
09:57 -6 °C -10.2 °C 34313.7 hPa SW 28.5 km/h 38.8 km/h 62 % 0 mm
10:02 -5.9 °C -10.1 °C 34313.7 hPa SSW 44.1 km/h 44.1 km/h 62 % 0 mm
10:12 -5.8 °C -10 °C 34327.3 hPa SW 33.6 km/h 49.2 km/h 62 % 0 mm
10:17 -5.8 °C -9.9 °C 34313.7 hPa SW 33.6 km/h 51.8 km/h 63 % 0 mm
10:22 -5.8 °C -9.8 °C 34327.3 hPa SW 15.6 km/h 51.8 km/h 63 % 0 mm
10:27 -5.7 °C -9.8 °C 34327.3 hPa SW 46.7 km/h 54.4 km/h 63 % 0 mm
10:32 -5.7 °C -9.7 °C 34327.3 hPa WSW 12.9 km/h 54.4 km/h 64 % 0 mm
10:37 -5.6 °C -9.7 °C 34327.3 hPa WSW 28.5 km/h 54.4 km/h 63 % 0 mm
10:42 -5.5 °C -9.7 °C 34327.3 hPa South 20.8 km/h 46.7 km/h 62 % 0 mm
10:47 -5.4 °C -9.6 °C 34327.3 hPa West 23.3 km/h 46.7 km/h 63 % 0 mm
10:52 -5.4 °C -9.5 °C 34327.3 hPa South 12.9 km/h 44.1 km/h 63 % 0 mm
10:57 -5.2 °C -9.5 °C 34327.3 hPa WSW 7.7 km/h 44.1 km/h 62 % 0 mm
11:02 -5.1 °C -9.6 °C 34327.3 hPa SW 23.3 km/h 38.8 km/h 60 % 0 mm
11:07 -5.1 °C -9.4 °C 34327.3 hPa SW 12.9 km/h 36.2 km/h 61 % 0 mm
11:12 -4.9 °C -9.5 °C 34327.3 hPa SW 7.7 km/h 44.1 km/h 60 % 0 mm
11:17 -4.9 °C -9.6 °C 34327.3 hPa SW 33.6 km/h 44.1 km/h 59 % 0 mm
11:22 -4.8 °C -9.5 °C 34327.3 hPa SW 12.9 km/h 44.1 km/h 59 % 0 mm
11:27 -4.7 °C -9.5 °C 34327.3 hPa SW 31.1 km/h 41.4 km/h 58 % 0 mm
11:32 -4.7 °C -9.5 °C 34327.3 hPa SW 31.1 km/h 44.1 km/h 58 % 0 mm
11:37 -4.6 °C -9.5 °C 34327.3 hPa WSW 20.8 km/h 44.1 km/h 58 % 0 mm
11:42 -4.4 °C -9.6 °C 34327.3 hPa West 33.6 km/h 44.1 km/h 56 % 0 mm
11:47 -4.3 °C -9.5 °C 34327.3 hPa WSW 15.6 km/h 44.1 km/h 56 % 0 mm
11:52 -4.3 °C -9.6 °C 34327.3 hPa NNW 18.2 km/h 38.8 km/h 55 % 0 mm
12:02 -4.2 °C -9.7 °C 34327.3 hPa West 7.7 km/h 36.2 km/h 54 % 0 mm
12:07 -4.2 °C -9.7 °C 34327.3 hPa WSW 20.8 km/h 41.4 km/h 54 % 0 mm
12:12 -4.2 °C -9.9 °C 34327.3 hPa WSW 12.9 km/h 41.4 km/h 53 % 0 mm
12:17 -4.1 °C -9.6 °C 34327.3 hPa WSW 18.2 km/h 41.4 km/h 54 % 0 mm
12:22 -4.1 °C -9.6 °C 34327.3 hPa WSW 20.8 km/h 36.2 km/h 54 % 0 mm
12:27 -3.9 °C -9.8 °C 34327.3 hPa West 5.1 km/h 46.7 km/h 52 % 0 mm
12:32 -3.9 °C -9.8 °C 34327.3 hPa West 38.8 km/h 46.7 km/h 52 % 0 mm
12:42 -3.8 °C -9.6 °C 34327.3 hPa West 15.6 km/h 41.4 km/h 53 % 0 mm
12:47 -3.8 °C -9.6 °C 34327.3 hPa WSW 12.9 km/h 41.4 km/h 53 % 0 mm
12:52 -3.8 °C -9.6 °C 34327.3 hPa WSW 18.2 km/h 38.8 km/h 53 % 0 mm
12:57 -3.7 °C -9.4 °C 34327.3 hPa WSW 23.3 km/h 38.8 km/h 53 % 0 mm
13:02 -3.6 °C -9.3 °C 34337.4 hPa West 25.9 km/h 38.8 km/h 53 % 0 mm
13:07 -3.7 °C -9.3 °C 34337.4 hPa West 12.9 km/h 38.8 km/h 54 % 0 mm
13:12 -3.7 °C -9.3 °C 34337.4 hPa West 25.9 km/h 38.8 km/h 54 % 0 mm
13:17 -3.7 °C -9.3 °C 34337.4 hPa West 15.6 km/h 38.8 km/h 54 % 0 mm
13:22 -3.7 °C -9.4 °C 34337.4 hPa WSW 15.6 km/h 36.2 km/h 53 % 0 mm
13:32 -3.6 °C -9.3 °C 34337.4 hPa WSW 12.9 km/h 33.6 km/h 53 % 0 mm
13:37 -3.4 °C -9.2 °C 34337.4 hPa West 15.6 km/h 33.6 km/h 53 % 0 mm
13:47 -3.4 °C -9.2 °C 34337.4 hPa SW 31.1 km/h 38.8 km/h 53 % 0 mm
13:52 -3.3 °C -9.2 °C 34337.4 hPa West 31.1 km/h 38.8 km/h 52 % 0 mm
13:57 -3.3 °C -9.1 °C 34337.4 hPa SW 15.6 km/h 38.8 km/h 53 % 0 mm
14:02 -3.4 °C -9.1 °C 34347.6 hPa WSW 28.5 km/h 38.8 km/h 53 % 0 mm
14:07 -3.4 °C -9.1 °C 34347.6 hPa West 12.9 km/h 38.8 km/h 53 % 0 mm
14:12 -3.2 °C -9.1 °C 34347.6 hPa WSW 25.9 km/h 38.8 km/h 52 % 0 mm
14:17 -3.2 °C -9.1 °C 34347.6 hPa WSW 7.7 km/h 38.8 km/h 52 % 0 mm
14:22 -3.2 °C -9.1 °C 34347.6 hPa West 15.6 km/h 33.6 km/h 52 % 0 mm
14:27 -3.2 °C -9.3 °C 34347.6 hPa WSW 20.8 km/h 33.6 km/h 51 % 0 mm
14:32 -3.2 °C -9.3 °C 34347.6 hPa SW 5.1 km/h 38.8 km/h 51 % 0 mm
14:37 -3.2 °C -9.2 °C 34347.6 hPa WSW 23.3 km/h 38.8 km/h 51 % 0 mm
14:42 -3.2 °C -9.4 °C 34347.6 hPa West 18.2 km/h 38.8 km/h 50 % 0 mm
14:47 -3.1 °C -9.3 °C 34347.6 hPa WSW 12.9 km/h 38.8 km/h 50 % 0 mm
14:52 -3.2 °C -9.6 °C 34347.6 hPa West 7.7 km/h 33.6 km/h 49 % 0 mm
14:57 -3 °C -9.4 °C 34347.6 hPa West 15.6 km/h 33.6 km/h 49 % 0 mm
15:02 -3.1 °C -9.5 °C 34347.6 hPa SW 10.3 km/h 33.6 km/h 49 % 0 mm
15:07 -3 °C -9.8 °C 34347.6 hPa WNW 15.6 km/h 38.8 km/h 47 % 0 mm
15:12 -3 °C -9.8 °C 34347.6 hPa West 23.3 km/h 38.8 km/h 47 % 0 mm
15:17 -3 °C -9.8 °C 34347.6 hPa West 7.7 km/h 38.8 km/h 47 % 0 mm
15:22 -3.1 °C -9.7 °C 34347.6 hPa WSW 12.9 km/h 38.8 km/h 48 % 0 mm
15:27 -2.9 °C -9.6 °C 34347.6 hPa NW 15.6 km/h 31.1 km/h 48 % 0 mm
15:37 -3.1 °C -9.7 °C 34347.6 hPa West 18.2 km/h 36.2 km/h 48 % 0 mm
15:42 -2.9 °C -9.3 °C 34347.6 hPa WSW 10.3 km/h 36.2 km/h 49 % 0 mm
15:47 -2.9 °C -9.6 °C 34347.6 hPa WSW 15.6 km/h 33.6 km/h 48 % 0 mm
15:52 -3 °C -9.4 °C 34347.6 hPa WNW 20.8 km/h 33.6 km/h 49 % 0 mm
15:57 -3 °C -9.4 °C 34347.6 hPa West 15.6 km/h 36.2 km/h 49 % 0 mm
16:02 -2.9 °C -9.4 °C 34347.6 hPa North 20.8 km/h 36.2 km/h 49 % 0 mm
16:07 -3.1 °C -9.6 °C 34361.1 hPa WSW 18.2 km/h 36.2 km/h 49 % 0 mm
16:17 -3.2 °C -9.2 °C 34361.1 hPa NNW 18.2 km/h 33.6 km/h 51 % 0 mm
16:22 -3.3 °C -9.3 °C 34361.1 hPa West 7.7 km/h 33.6 km/h 51 % 0 mm
16:27 -3.4 °C -9.4 °C 34361.1 hPa WNW 12.9 km/h 33.6 km/h 51 % 0 mm
16:32 -3.4 °C -9.3 °C 34361.1 hPa WSW 10.3 km/h 33.6 km/h 52 % 0 mm
16:37 -3.5 °C -9.4 °C 34361.1 hPa West 15.6 km/h 31.1 km/h 52 % 0 mm
16:42 -3.6 °C -9.3 °C 34361.1 hPa West 20.8 km/h 41.4 km/h 53 % 0 mm
16:52 -3.7 °C -9.3 °C 34361.1 hPa West 5.1 km/h 33.6 km/h 54 % 0 mm
16:57 -3.6 °C -9.3 °C 34371.3 hPa West 20.8 km/h 31.1 km/h 53 % 0 mm
17:02 -3.4 °C -9.2 °C 34361.1 hPa SW 20.8 km/h 31.1 km/h 53 % 0 mm
17:07 -3.4 °C -9.1 °C 34371.3 hPa WNW 20.8 km/h 33.6 km/h 53 % 0 mm
17:12 -3.4 °C -9.2 °C 34371.3 hPa NW 18.2 km/h 33.6 km/h 53 % 0 mm
17:17 -3.2 °C -9.1 °C 34371.3 hPa WNW 23.3 km/h 33.6 km/h 52 % 0 mm
17:22 -3.3 °C -9.2 °C 34371.3 hPa West 15.6 km/h 33.6 km/h 52 % 0 mm
17:27 -3.4 °C -9.2 °C 34371.3 hPa West 15.6 km/h 41.4 km/h 53 % 0 mm
17:32 -3.4 °C -9.2 °C 34371.3 hPa SSW 12.9 km/h 41.4 km/h 53 % 0 mm
17:37 -3.3 °C -9.1 °C 34371.3 hPa West 23.3 km/h 41.4 km/h 53 % 0 mm
17:47 -3.5 °C -9.1 °C 34371.3 hPa WNW 18.2 km/h 33.6 km/h 54 % 0 mm
17:52 -3.6 °C -9.1 °C 34384.8 hPa West 10.3 km/h 33.6 km/h 54 % 0 mm
17:57 -3.6 °C -9.1 °C 34384.8 hPa WNW 28.5 km/h 33.6 km/h 54 % 0 mm
18:02 -3.8 °C -9 °C 34384.8 hPa WNW 33.6 km/h 33.6 km/h 56 % 0 mm
18:07 -4 °C -9.1 °C 34384.8 hPa WNW 20.8 km/h 46.7 km/h 57 % 0 mm
18:12 -4.1 °C -8.9 °C 34384.8 hPa West 23.3 km/h 46.7 km/h 58 % 0 mm
18:17 -4.1 °C -8.9 °C 34384.8 hPa WNW 15.6 km/h 46.7 km/h 58 % 0 mm
18:22 -4 °C -8.8 °C 34384.8 hPa West 20.8 km/h 38.8 km/h 59 % 0 mm
18:32 -4.1 °C -8.8 °C 34384.8 hPa NW 23.3 km/h 36.2 km/h 59 % 0 mm
18:42 -4.4 °C -9 °C 34395 hPa WSW 23.3 km/h 36.2 km/h 60 % 0 mm
18:47 -4.5 °C -9.1 °C 34395 hPa WNW 18.2 km/h 36.2 km/h 60 % 0 mm
18:52 -4.6 °C -9.1 °C 34384.8 hPa SW 10.3 km/h 38.8 km/h 60 % 0 mm
18:57 -4.6 °C -9.1 °C 34395 hPa WNW 18.2 km/h 38.8 km/h 60 % 0 mm
19:02 -4.6 °C -9.3 °C 34395 hPa West 12.9 km/h 38.8 km/h 59 % 0 mm
19:07 -4.6 °C -9.3 °C 34395 hPa NNW 15.6 km/h 33.6 km/h 59 % 0 mm
19:17 -4.7 °C -9.4 °C 34395 hPa NNW 23.3 km/h 36.2 km/h 59 % 0 mm
19:22 -4.8 °C -9.3 °C 34395 hPa WNW 15.6 km/h 36.2 km/h 60 % 0 mm
19:27 -4.8 °C -9.2 °C 34395 hPa WNW 10.3 km/h 36.2 km/h 61 % 0 mm
19:32 -4.9 °C -9.2 °C 34395 hPa West 12.9 km/h 31.1 km/h 62 % 0 mm
19:37 -5.1 °C -9.3 °C 34395 hPa WSW 12.9 km/h 31.1 km/h 62 % 0 mm
19:42 -5.1 °C -9.2 °C 34395 hPa NW 10.3 km/h 31.1 km/h 63 % 0 mm
19:52 -5.2 °C -9.2 °C 34405.1 hPa SW 7.7 km/h 28.5 km/h 64 % 0 mm
19:57 -5.2 °C -9.2 °C 34405.1 hPa WNW 20.8 km/h 23.3 km/h 64 % 0 mm
20:02 -5.3 °C -9.3 °C 34405.1 hPa WNW 7.7 km/h 28.5 km/h 64 % 0 mm
20:07 -5.3 °C -9.3 °C 34405.1 hPa West 12.9 km/h 28.5 km/h 64 % 0 mm
20:12 -5.4 °C -9.3 °C 34405.1 hPa West 15.6 km/h 28.5 km/h 64 % 0 mm
20:17 -5.4 °C -9.3 °C 34405.1 hPa WNW 2.6 km/h 25.9 km/h 64 % 0 mm
20:22 -5.4 °C -9.3 °C 34405.1 hPa West 15.6 km/h 25.9 km/h 65 % 0 mm
20:27 -5.5 °C -9.3 °C 34405.1 hPa West 7.7 km/h 20.8 km/h 65 % 0 mm
20:32 -5.6 °C -9.4 °C 34405.1 hPa West 5.1 km/h 15.6 km/h 65 % 0 mm
20:37 -5.7 °C -9.3 °C 34405.1 hPa WNW 2.6 km/h 15.6 km/h 66 % 0 mm
20:47 -5.8 °C -9.4 °C 34418.7 hPa West 10.3 km/h 18.2 km/h 67 % 0 mm
20:52 -5.9 °C -9.3 °C 34418.7 hPa WNW 12.9 km/h 18.2 km/h 68 % 0 mm
20:57 -6 °C -9.4 °C 34418.7 hPa WNW 2.6 km/h 18.2 km/h 68 % 0 mm
21:02 -6.1 °C -9.4 °C 34418.7 hPa WNW 7.7 km/h 18.2 km/h 68 % 0 mm
21:07 -6.1 °C -9.3 °C 34418.7 hPa Calm   18.2 km/h 69 % 0 mm
21:12 -6.2 °C -9.4 °C 34418.7 hPa WNW 5.1 km/h 10.3 km/h 69 % 0 mm
21:17 -6.2 °C -9.5 °C 34418.7 hPa WNW 7.7 km/h 10.3 km/h 69 % 0 mm
21:22 -6.3 °C -9.4 °C 34428.8 hPa WNW 2.6 km/h 10.3 km/h 70 % 0 mm
21:27 -6.4 °C -9.6 °C 34428.8 hPa Calm   10.3 km/h 70 % 0 mm
21:32 -6.5 °C -9.5 °C 34428.8 hPa WNW 2.6 km/h 10.3 km/h 71 % 0 mm
21:42 -6.6 °C -9.7 °C 34428.8 hPa WNW 10.3 km/h 10.3 km/h 70 % 0 mm
21:52 -6.7 °C -9.8 °C 34428.8 hPa West 2.6 km/h 10.3 km/h 70 % 0 mm
21:57 -6.7 °C -9.8 °C 34428.8 hPa WNW 7.7 km/h 10.3 km/h 70 % 0 mm
22:02 -6.8 °C -9.9 °C 34428.8 hPa WNW 5.1 km/h 7.7 km/h 70 % 0 mm
22:07 -6.8 °C -9.9 °C 34428.8 hPa WNW 2.6 km/h 10.3 km/h 70 % 0 mm
22:12 -6.9 °C -10 °C 34442.4 hPa WNW 5.1 km/h 10.3 km/h 70 % 0 mm
22:17 -6.9 °C -10 °C 34428.8 hPa WNW 5.1 km/h 10.3 km/h 70 % 0 mm
22:22 -6.9 °C -10.1 °C 34442.4 hPa NW 5.1 km/h 10.3 km/h 70 % 0 mm
22:27 -6.9 °C -10 °C 34442.4 hPa NW 2.6 km/h 12.9 km/h 70 % 0 mm
22:32 -6.9 °C -10 °C 34442.4 hPa NW 5.1 km/h 12.9 km/h 70 % 0 mm
22:37 -6.9 °C -10.1 °C 34442.4 hPa NW 10.3 km/h 12.9 km/h 70 % 0 mm
22:42 -7 °C -10 °C 34442.4 hPa WNW 2.6 km/h 10.3 km/h 71 % 0 mm
22:52 -7.2 °C -10.2 °C 34442.4 hPa Calm   10.3 km/h 71 % 0 mm
22:57 -7.2 °C -10.3 °C 34452.6 hPa Calm   7.7 km/h 70 % 0 mm
23:02 -7.2 °C -10.4 °C 34442.4 hPa WNW 2.6 km/h 7.7 km/h 69 % 0 mm
23:07 -7.3 °C -10.5 °C 34442.4 hPa NW 2.6 km/h 7.7 km/h 69 % 0 mm
23:12 -7.3 °C -10.5 °C 34452.6 hPa NW 5.1 km/h 7.7 km/h 69 % 0 mm
23:17 -7.2 °C -10.6 °C 34452.6 hPa West 2.6 km/h 7.7 km/h 68 % 0 mm
23:22 -7.2 °C -10.6 °C 34452.6 hPa NW 2.6 km/h 7.7 km/h 68 % 0 mm
23:27 -7.3 °C -10.8 °C 34452.6 hPa Calm   7.7 km/h 67 % 0 mm
23:32 -7.3 °C -10.8 °C 34452.6 hPa West 2.6 km/h 7.7 km/h 67 % 0 mm
23:37 -7.3 °C -10.9 °C 34452.6 hPa WNW 2.6 km/h 7.7 km/h 66 % 0 mm
23:42 -7.3 °C -10.9 °C 34452.6 hPa WNW 2.6 km/h 12.9 km/h 66 % 0 mm
23:47 -7.3 °C -10.9 °C 34452.6 hPa WNW 10.3 km/h 12.9 km/h 66 % 0 mm
23:52 -7.4 °C -11 °C 34452.6 hPa WNW 5.1 km/h 12.9 km/h 66 % 0 mm
23:57 -7.4 °C -11.1 °C 34452.6 hPa NNW 5.1 km/h 12.9 km/h 66 % 0 mm
Meteo18
Compliments of Weather Underground - 4 mb

Script developed by  Jim McMurry - jmcmurry@mwt.net Adapted for the template by  Wim van der Kuil - Leuven-Template.eu

You find our weather info also at:

European Weather Network

Weather Underground

Equipment we use:

Weather-station
Davis Vue

Weather-program
Meteobridge

Weather-server
Raspberry PI 2 B+

Provider
1 and 1

Davis Vue

Meteobridge

Raspberry PI 2 B+

1 and 1